sensor_id;sensor_type;location;lat;lon;timestamp;pressure;altitude;pressure_sealevel;temperature;humidity
43846;BME280;32485;51.112;13.640;2022-08-19T00:00:38;99347.00;;;22.12;80.47
43846;BME280;32485;51.112;13.640;2022-08-19T00:03:06;99360.69;;;22.16;80.56
43846;BME280;32485;51.112;13.640;2022-08-19T00:05:34;99376.66;;;22.24;80.74
43846;BME280;32485;51.112;13.640;2022-08-19T00:08:02;99368.94;;;22.16;81.28
43846;BME280;32485;51.112;13.640;2022-08-19T00:10:29;99377.56;;;22.18;81.17
43846;BME280;32485;51.112;13.640;2022-08-19T00:12:56;99385.53;;;22.12;81.76
43846;BME280;32485;51.112;13.640;2022-08-19T00:15:25;99394.53;;;22.13;81.86
43846;BME280;32485;51.112;13.640;2022-08-19T00:17:54;99376.25;;;22.02;81.87
43846;BME280;32485;51.112;13.640;2022-08-19T00:20:22;99395.72;;;22.12;82.09
43846;BME280;32485;51.112;13.640;2022-08-19T00:22:49;99395.81;;;22.08;82.35
43846;BME280;32485;51.112;13.640;2022-08-19T00:25:17;99400.47;;;22.11;82.11
43846;BME280;32485;51.112;13.640;2022-08-19T00:27:45;99402.44;;;22.11;82.41
43846;BME280;32485;51.112;13.640;2022-08-19T00:30:13;99399.88;;;22.00;83.38
43846;BME280;32485;51.112;13.640;2022-08-19T00:32:42;99403.44;;;21.97;83.55
43846;BME280;32485;51.112;13.640;2022-08-19T00:35:09;99401.09;;;21.95;84.16
43846;BME280;32485;51.112;13.640;2022-08-19T00:37:37;99406.25;;;21.93;84.46
43846;BME280;32485;51.112;13.640;2022-08-19T00:40:11;99409.41;;;21.92;84.60
43846;BME280;32485;51.112;13.640;2022-08-19T00:42:38;99419.66;;;21.91;84.73
43846;BME280;32485;51.112;13.640;2022-08-19T00:45:11;99429.09;;;21.90;84.95
43846;BME280;32485;51.112;13.640;2022-08-19T00:47:38;99428.66;;;21.92;84.93
43846;BME280;32485;51.112;13.640;2022-08-19T00:50:09;99437.34;;;21.90;85.32
43846;BME280;32485;51.112;13.640;2022-08-19T00:52:40;99419.72;;;21.84;85.50
43846;BME280;32485;51.112;13.640;2022-08-19T00:55:14;99403.34;;;21.77;85.80
43846;BME280;32485;51.112;13.640;2022-08-19T00:57:51;99417.66;;;21.92;85.52
43846;BME280;32485;51.112;13.640;2022-08-19T01:00:21;99408.66;;;21.91;85.97
43846;BME280;32485;51.112;13.640;2022-08-19T01:02:49;99407.84;;;21.90;86.06
43846;BME280;32485;51.112;13.640;2022-08-19T01:05:22;99398.34;;;21.95;85.64
43846;BME280;32485;51.112;13.640;2022-08-19T01:07:50;99394.47;;;21.93;85.51
43846;BME280;32485;51.112;13.640;2022-08-19T01:10:24;99399.66;;;21.87;85.71
43846;BME280;32485;51.112;13.640;2022-08-19T01:12:52;99400.78;;;21.89;85.55
43846;BME280;32485;51.112;13.640;2022-08-19T01:15:25;99401.72;;;21.79;85.71
43846;BME280;32485;51.112;13.640;2022-08-19T01:17:54;99404.88;;;21.81;86.26
43846;BME280;32485;51.112;13.640;2022-08-19T01:20:24;99402.19;;;21.74;86.33
43846;BME280;32485;51.112;13.640;2022-08-19T01:22:56;99397.22;;;21.65;86.53
43846;BME280;32485;51.112;13.640;2022-08-19T01:25:29;99421.75;;;21.80;86.64
43846;BME280;32485;51.112;13.640;2022-08-19T01:27:58;99416.25;;;21.80;86.86
43846;BME280;32485;51.112;13.640;2022-08-19T01:30:30;99413.47;;;21.83;86.73
43846;BME280;32485;51.112;13.640;2022-08-19T01:32:58;99404.94;;;21.74;87.00
43846;BME280;32485;51.112;13.640;2022-08-19T01:35:29;99414.28;;;21.80;87.04
43846;BME280;32485;51.112;13.640;2022-08-19T01:38:02;99427.31;;;21.76;87.36
43846;BME280;32485;51.112;13.640;2022-08-19T01:40:37;99424.47;;;21.83;87.11
43846;BME280;32485;51.112;13.640;2022-08-19T01:43:06;99430.69;;;21.87;87.04
43846;BME280;32485;51.112;13.640;2022-08-19T01:45:34;99422.44;;;21.87;86.95
43846;BME280;32485;51.112;13.640;2022-08-19T01:48:03;99414.66;;;21.82;87.31
43846;BME280;32485;51.112;13.640;2022-08-19T01:50:33;99411.78;;;21.89;87.05
43846;BME280;32485;51.112;13.640;2022-08-19T01:53:06;99407.13;;;21.86;87.44
43846;BME280;32485;51.112;13.640;2022-08-19T01:55:36;99409.09;;;21.86;87.78
43846;BME280;32485;51.112;13.640;2022-08-19T01:58:06;99412.16;;;21.92;87.24
43846;BME280;32485;51.112;13.640;2022-08-19T02:00:34;99415.75;;;21.88;87.70
43846;BME280;32485;51.112;13.640;2022-08-19T02:03:01;99415.75;;;21.88;87.71
43846;BME280;32485;51.112;13.640;2022-08-19T02:05:28;99429.84;;;21.90;87.58
43846;BME280;32485;51.112;13.640;2022-08-19T02:07:56;99433.78;;;21.89;87.86
43846;BME280;32485;51.112;13.640;2022-08-19T02:10:26;99423.91;;;21.96;87.33
43846;BME280;32485;51.112;13.640;2022-08-19T02:12:53;99414.84;;;21.95;87.46
43846;BME280;32485;51.112;13.640;2022-08-19T02:15:20;99406.19;;;21.97;87.39
43846;BME280;32485;51.112;13.640;2022-08-19T02:17:48;99408.53;;;21.98;87.34
43846;BME280;32485;51.112;13.640;2022-08-19T02:20:16;99402.22;;;21.98;87.38
43846;BME280;32485;51.112;13.640;2022-08-19T02:22:44;99391.72;;;21.93;87.75
43846;BME280;32485;51.112;13.640;2022-08-19T02:25:13;99384.28;;;21.89;87.96
43846;BME280;32485;51.112;13.640;2022-08-19T02:27:42;99375.31;;;21.85;88.49
43846;BME280;32485;51.112;13.640;2022-08-19T02:30:14;99388.28;;;21.85;88.35
43846;BME280;32485;51.112;13.640;2022-08-19T02:32:42;99399.81;;;21.76;88.86
43846;BME280;32485;51.112;13.640;2022-08-19T02:35:10;99395.41;;;21.82;88.17
43846;BME280;32485;51.112;13.640;2022-08-19T02:37:37;99420.88;;;21.86;88.61
43846;BME280;32485;51.112;13.640;2022-08-19T02:40:22;99416.53;;;21.89;88.34
43846;BME280;32485;51.112;13.640;2022-08-19T02:42:51;99416.47;;;21.93;87.80
43846;BME280;32485;51.112;13.640;2022-08-19T02:45:19;99414.84;;;21.95;88.09
43846;BME280;32485;51.112;13.640;2022-08-19T02:47:46;99412.16;;;21.92;88.31
43846;BME280;32485;51.112;13.640;2022-08-19T02:50:13;99418.41;;;21.96;87.72
43846;BME280;32485;51.112;13.640;2022-08-19T02:52:40;99421.78;;;22.03;87.39
43846;BME280;32485;51.112;13.640;2022-08-19T02:55:08;99424.97;;;22.02;87.71
43846;BME280;32485;51.112;13.640;2022-08-19T02:57:36;99424.63;;;22.00;87.63
43846;BME280;32485;51.112;13.640;2022-08-19T03:00:07;99410.56;;;21.94;87.27
43846;BME280;32485;51.112;13.640;2022-08-19T03:02:37;99430.84;;;22.04;87.22
43846;BME280;32485;51.112;13.640;2022-08-19T03:05:06;99427.38;;;22.00;87.68
43846;BME280;32485;51.112;13.640;2022-08-19T03:07:36;99423.47;;;21.97;87.77
43846;BME280;32485;51.112;13.640;2022-08-19T03:10:04;99431.66;;;22.01;87.45
43846;BME280;32485;51.112;13.640;2022-08-19T03:12:36;99433.28;;;21.98;87.45
43846;BME280;32485;51.112;13.640;2022-08-19T03:15:07;99429.09;;;21.90;87.54
43846;BME280;32485;51.112;13.640;2022-08-19T03:17:35;99429.41;;;21.96;87.72
43846;BME280;32485;51.112;13.640;2022-08-19T03:20:04;99413.41;;;21.87;88.08
43846;BME280;32485;51.112;13.640;2022-08-19T03:22:31;99416.56;;;21.85;88.39
43846;BME280;32485;51.112;13.640;2022-08-19T03:24:59;99404.19;;;21.73;88.57
43846;BME280;32485;51.112;13.640;2022-08-19T03:27:26;99412.69;;;21.83;88.68
43846;BME280;32485;51.112;13.640;2022-08-19T03:29:54;99409.97;;;21.79;88.76
43846;BME280;32485;51.112;13.640;2022-08-19T03:32:23;99420.22;;;21.79;88.78
43846;BME280;32485;51.112;13.640;2022-08-19T03:34:50;99418.19;;;21.83;88.65
43846;BME280;32485;51.112;13.640;2022-08-19T03:37:18;99416.22;;;21.83;88.65
43846;BME280;32485;51.112;13.640;2022-08-19T03:39:45;99426.75;;;21.88;88.00
43846;BME280;32485;51.112;13.640;2022-08-19T03:42:12;99420.75;;;21.94;87.65
43846;BME280;32485;51.112;13.640;2022-08-19T03:44:39;99425.81;;;21.99;87.47
43846;BME280;32485;51.112;13.640;2022-08-19T03:47:08;99428.25;;;21.93;87.71
43846;BME280;32485;51.112;13.640;2022-08-19T03:49:36;99435.25;;;21.98;87.31
43846;BME280;32485;51.112;13.640;2022-08-19T03:52:04;99412.63;;;21.86;87.37
43846;BME280;32485;51.112;13.640;2022-08-19T03:54:33;99424.34;;;21.90;87.52
43846;BME280;32485;51.112;13.640;2022-08-19T03:57:02;99429.84;;;21.90;87.39
43846;BME280;32485;51.112;13.640;2022-08-19T03:59:32;99443.59;;;21.90;87.32
43846;BME280;32485;51.112;13.640;2022-08-19T04:02:03;99442.03;;;21.89;87.26
43846;BME280;32485;51.112;13.640;2022-08-19T04:04:35;99451.03;;;21.94;87.10
43846;BME280;32485;51.112;13.640;2022-08-19T04:07:03;99447.97;;;21.88;87.65
43846;BME280;32485;51.112;13.640;2022-08-19T04:09:30;99438.63;;;21.82;87.94
43846;BME280;32485;51.112;13.640;2022-08-19T04:11:58;99439.81;;;21.81;88.09
43846;BME280;32485;51.112;13.640;2022-08-19T04:14:28;99431.78;;;21.66;88.25
43846;BME280;32485;51.112;13.640;2022-08-19T04:16:56;99437.91;;;21.78;88.13
43846;BME280;32485;51.112;13.640;2022-08-19T04:19:24;99443.44;;;21.74;88.34
43846;BME280;32485;51.112;13.640;2022-08-19T04:21:54;99438.00;;;21.70;88.45
43846;BME280;32485;51.112;13.640;2022-08-19T04:24:22;99419.34;;;21.54;88.99
43846;BME280;32485;51.112;13.640;2022-08-19T04:26:50;99425.50;;;21.66;88.73
43846;BME280;32485;51.112;13.640;2022-08-19T04:29:20;99423.88;;;21.68;88.82
43846;BME280;32485;51.112;13.640;2022-08-19T04:31:51;99423.72;;;21.52;89.30
43846;BME280;32485;51.112;13.640;2022-08-19T04:34:21;99446.03;;;21.58;89.40
43846;BME280;32485;51.112;13.640;2022-08-19T04:36:50;99453.03;;;21.62;89.14
43846;BME280;32485;51.112;13.640;2022-08-19T04:39:22;99435.34;;;21.63;88.74
43846;BME280;32485;51.112;13.640;2022-08-19T04:42:09;99436.50;;;21.66;88.86
43846;BME280;32485;51.112;13.640;2022-08-19T04:44:54;99437.22;;;21.70;88.54
43846;BME280;32485;51.112;13.640;2022-08-19T04:47:21;99438.88;;;21.64;89.20
43846;BME280;32485;51.112;13.640;2022-08-19T04:49:48;99449.22;;;21.52;89.80
43846;BME280;32485;51.112;13.640;2022-08-19T04:52:15;99460.59;;;21.54;90.03
43846;BME280;32485;51.112;13.640;2022-08-19T04:54:44;99463.31;;;21.58;89.92
43846;BME280;32485;51.112;13.640;2022-08-19T04:57:11;99450.38;;;21.51;89.64
43846;BME280;32485;51.112;13.640;2022-08-19T04:59:39;99465.28;;;21.58;89.47
43846;BME280;32485;51.112;13.640;2022-08-19T05:02:07;99458.63;;;21.55;89.80
43846;BME280;32485;51.112;13.640;2022-08-19T05:04:36;99455.63;;;21.42;89.93
43846;BME280;32485;51.112;13.640;2022-08-19T05:07:05;99434.91;;;21.34;90.10
43846;BME280;32485;51.112;13.640;2022-08-19T05:09:32;99457.97;;;21.44;90.08
43846;BME280;32485;51.112;13.640;2022-08-19T05:12:00;99458.41;;;21.38;90.41
43846;BME280;32485;51.112;13.640;2022-08-19T05:14:27;99450.94;;;21.39;90.32
43846;BME280;32485;51.112;13.640;2022-08-19T05:16:55;99455.69;;;21.35;90.59
43846;BME280;32485;51.112;13.640;2022-08-19T05:19:22;99452.63;;;21.29;91.15
43846;BME280;32485;51.112;13.640;2022-08-19T05:22:07;99466.84;;;21.20;91.39
43846;BME280;32485;51.112;13.640;2022-08-19T05:24:52;99470.78;;;21.19;91.56
43846;BME280;32485;51.112;13.640;2022-08-19T05:27:20;99471.19;;;21.18;91.72
43846;BME280;32485;51.112;13.640;2022-08-19T05:29:47;99485.34;;;21.16;91.67
43846;BME280;32485;51.112;13.640;2022-08-19T05:32:14;99475.56;;;21.15;91.50
43846;BME280;32485;51.112;13.640;2022-08-19T05:34:41;99489.69;;;21.14;91.74
43846;BME280;32485;51.112;13.640;2022-08-19T05:37:08;99498.22;;;21.23;91.36
43846;BME280;32485;51.112;13.640;2022-08-19T05:39:37;99486.56;;;21.15;91.56
43846;BME280;32485;51.112;13.640;2022-08-19T05:42:06;99502.22;;;21.18;91.83
43846;BME280;32485;51.112;13.640;2022-08-19T05:44:38;99510.78;;;21.24;91.57
43846;BME280;32485;51.112;13.640;2022-08-19T05:47:11;99515.03;;;21.29;90.72
43846;BME280;32485;51.112;13.640;2022-08-19T05:49:41;99503.97;;;20.98;90.96
43846;BME280;32485;51.112;13.640;2022-08-19T05:52:11;99522.63;;;21.17;90.57
43846;BME280;32485;51.112;13.640;2022-08-19T05:54:39;99521.53;;;21.08;90.70
43846;BME280;32485;51.112;13.640;2022-08-19T05:57:08;99530.03;;;21.20;90.35
43846;BME280;32485;51.112;13.640;2022-08-19T05:59:37;99546.19;;;21.18;90.43
43846;BME280;32485;51.112;13.640;2022-08-19T06:02:05;99540.28;;;21.16;90.40
43846;BME280;32485;51.112;13.640;2022-08-19T06:04:33;99555.53;;;21.25;90.14
43846;BME280;32485;51.112;13.640;2022-08-19T06:07:00;99561.00;;;21.25;89.53
43846;BME280;32485;51.112;13.640;2022-08-19T06:09:28;99565.34;;;21.22;89.68
43846;BME280;32485;51.112;13.640;2022-08-19T06:11:58;99561.09;;;21.17;89.52
43846;BME280;32485;51.112;13.640;2022-08-19T06:14:31;99569.66;;;21.27;88.83
43846;BME280;32485;51.112;13.640;2022-08-19T06:17:01;99586.94;;;21.23;89.75
43846;BME280;32485;51.112;13.640;2022-08-19T06:19:30;99598.31;;;21.26;89.74
43846;BME280;32485;51.112;13.640;2022-08-19T06:21:58;99603.38;;;21.27;89.44
43846;BME280;32485;51.112;13.640;2022-08-19T06:24:28;99612.41;;;21.28;89.74
43846;BME280;32485;51.112;13.640;2022-08-19T06:26:57;99587.88;;;21.10;90.14
43846;BME280;32485;51.112;13.640;2022-08-19T06:29:26;99619.50;;;21.25;90.20
43846;BME280;32485;51.112;13.640;2022-08-19T06:31:56;99604.34;;;21.10;90.48
43846;BME280;32485;51.112;13.640;2022-08-19T06:34:27;99622.22;;;21.29;90.49
43846;BME280;32485;51.112;13.640;2022-08-19T06:36:57;99627.28;;;21.34;90.35
43846;BME280;32485;51.112;13.640;2022-08-19T06:39:31;99617.22;;;21.16;90.88
43846;BME280;32485;51.112;13.640;2022-08-19T06:42:01;99617.22;;;21.16;91.25
43846;BME280;32485;51.112;13.640;2022-08-19T06:44:32;99629.34;;;21.22;91.62
43846;BME280;32485;51.112;13.640;2022-08-19T06:47:03;99631.69;;;21.20;92.04
43846;BME280;32485;51.112;13.640;2022-08-19T06:49:33;99631.41;;;21.11;92.80
43846;BME280;32485;51.112;13.640;2022-08-19T06:52:01;99637.25;;;21.17;93.19
43846;BME280;32485;51.112;13.640;2022-08-19T06:54:28;99621.22;;;21.08;93.27
43846;BME280;32485;51.112;13.640;2022-08-19T06:56:56;99625.94;;;21.08;93.97
43846;BME280;32485;51.112;13.640;2022-08-19T06:59:24;99651.00;;;21.17;95.03
43846;BME280;32485;51.112;13.640;2022-08-19T07:01:55;99629.16;;;20.99;95.30
43846;BME280;32485;51.112;13.640;2022-08-19T07:04:26;99654.56;;;21.10;95.94
43846;BME280;32485;51.112;13.640;2022-08-19T07:07:00;99666.38;;;21.03;97.76
43846;BME280;32485;51.112;13.640;2022-08-19T07:09:27;99653.09;;;20.95;97.87
43846;BME280;32485;51.112;13.640;2022-08-19T07:11:56;99651.25;;;20.77;99.66
43846;BME280;32485;51.112;13.640;2022-08-19T07:14:25;99651.66;;;20.79;100.00
43846;BME280;32485;51.112;13.640;2022-08-19T07:16:55;99656.34;;;20.79;100.00
43846;BME280;32485;51.112;13.640;2022-08-19T07:19:25;99651.31;;;20.70;100.00
43846;BME280;32485;51.112;13.640;2022-08-19T07:21:53;99636.06;;;20.58;100.00
43846;BME280;32485;51.112;13.640;2022-08-19T07:24:25;99639.94;;;20.64;100.00
43846;BME280;32485;51.112;13.640;2022-08-19T07:26:55;99631.28;;;20.66;100.00
43846;BME280;32485;51.112;13.640;2022-08-19T07:29:25;99639.16;;;20.71;100.00
43846;BME280;32485;51.112;13.640;2022-08-19T07:31:53;99640.38;;;20.59;100.00
43846;BME280;32485;51.112;13.640;2022-08-19T07:34:23;99639.22;;;20.57;100.00
43846;BME280;32485;51.112;13.640;2022-08-19T07:36:50;99648.66;;;20.48;100.00
43846;BME280;32485;51.112;13.640;2022-08-19T07:39:22;99636.16;;;20.44;100.00
43846;BME280;32485;51.112;13.640;2022-08-19T07:41:50;99669.00;;;20.54;100.00
43846;BME280;32485;51.112;13.640;2022-08-19T07:44:18;99668.19;;;20.58;100.00
43846;BME280;32485;51.112;13.640;2022-08-19T07:46:52;99653.34;;;20.51;100.00
43846;BME280;32485;51.112;13.640;2022-08-19T07:49:20;99651.41;;;20.48;100.00
43846;BME280;32485;51.112;13.640;2022-08-19T07:51:50;99675.63;;;20.64;100.00
43846;BME280;32485;51.112;13.640;2022-08-19T07:54:19;99663.47;;;20.62;100.00
43846;BME280;32485;51.112;13.640;2022-08-19T07:56:48;99672.47;;;20.66;100.00
43846;BME280;32485;51.112;13.640;2022-08-19T07:59:16;99669.34;;;20.71;100.00
43846;BME280;32485;51.112;13.640;2022-08-19T08:01:45;99672.91;;;20.68;100.00
43846;BME280;32485;51.112;13.640;2022-08-19T08:04:13;99675.66;;;20.68;100.00
43846;BME280;32485;51.112;13.640;2022-08-19T08:06:58;99680.75;;;20.62;100.00
43846;BME280;32485;51.112;13.640;2022-08-19T08:09:44;99658.84;;;20.51;100.00
43846;BME280;32485;51.112;13.640;2022-08-19T08:12:19;99675.66;;;20.68;100.00
43846;BME280;32485;51.112;13.640;2022-08-19T08:14:51;99659.97;;;20.58;100.00
43846;BME280;32485;51.112;13.640;2022-08-19T08:17:22;99655.25;;;20.62;100.00
43846;BME280;32485;51.112;13.640;2022-08-19T08:19:50;99667.31;;;20.82;100.00
43846;BME280;32485;51.112;13.640;2022-08-19T08:22:20;99666.94;;;20.80;100.00
43846;BME280;32485;51.112;13.640;2022-08-19T08:25:06;99677.44;;;20.93;100.00
43846;BME280;32485;51.112;13.640;2022-08-19T08:27:37;99688.34;;;21.07;100.00
43846;BME280;32485;51.112;13.640;2022-08-19T08:30:07;99684.03;;;21.06;100.00
43846;BME280;32485;51.112;13.640;2022-08-19T08:32:35;99684.38;;;21.08;100.00
43846;BME280;32485;51.112;13.640;2022-08-19T08:35:04;99695.38;;;21.08;100.00
43846;BME280;32485;51.112;13.640;2022-08-19T08:37:31;99695.00;;;21.06;100.00
43846;BME280;32485;51.112;13.640;2022-08-19T08:39:58;99693.38;;;21.12;100.00
43846;BME280;32485;51.112;13.640;2022-08-19T08:42:30;99693.38;;;21.16;100.00
43846;BME280;32485;51.112;13.640;2022-08-19T08:45:05;99686.25;;;21.22;100.00
43846;BME280;32485;51.112;13.640;2022-08-19T08:47:37;99688.69;;;21.13;100.00
43846;BME280;32485;51.112;13.640;2022-08-19T08:50:10;99707.81;;;21.23;99.53
43846;BME280;32485;51.112;13.640;2022-08-19T08:52:45;99697.63;;;21.24;99.34
43846;BME280;32485;51.112;13.640;2022-08-19T08:55:17;99703.84;;;21.32;99.45
43846;BME280;32485;51.112;13.640;2022-08-19T08:57:51;99713.59;;;21.40;98.55
43846;BME280;32485;51.112;13.640;2022-08-19T09:00:25;99709.28;;;21.39;97.85
43846;BME280;32485;51.112;13.640;2022-08-19T09:02:53;99719.41;;;21.49;97.56
43846;BME280;32485;51.112;13.640;2022-08-19T09:05:22;99706.50;;;21.46;98.49
43846;BME280;32485;51.112;13.640;2022-08-19T09:07:57;99684.94;;;21.41;96.77
43846;BME280;32485;51.112;13.640;2022-08-19T09:10:32;99695.50;;;21.46;96.62
43846;BME280;32485;51.112;13.640;2022-08-19T09:13:09;99709.09;;;21.64;96.35
43846;BME280;32485;51.112;13.640;2022-08-19T09:15:46;99716.88;;;21.73;96.01
43846;BME280;32485;51.112;13.640;2022-08-19T09:18:15;99708.19;;;21.78;94.75
43846;BME280;32485;51.112;13.640;2022-08-19T09:20:42;99714.44;;;21.82;94.07
43846;BME280;32485;51.112;13.640;2022-08-19T09:23:09;99718.34;;;21.85;93.11
43846;BME280;32485;51.112;13.640;2022-08-19T09:25:37;99719.09;;;21.85;92.62
43846;BME280;32485;51.112;13.640;2022-08-19T09:28:06;99709.72;;;21.83;92.59
43846;BME280;32485;51.112;13.640;2022-08-19T09:30:38;99704.16;;;21.86;91.64
43846;BME280;32485;51.112;13.640;2022-08-19T09:33:07;99686.47;;;21.87;91.81
43846;BME280;32485;51.112;13.640;2022-08-19T09:35:34;99698.22;;;21.92;91.94
43846;BME280;32485;51.112;13.640;2022-08-19T09:38:02;99679.72;;;21.96;91.31
43846;BME280;32485;51.112;13.640;2022-08-19T09:40:30;99676.88;;;22.03;92.10
43846;BME280;32485;51.112;13.640;2022-08-19T09:42:58;99671.38;;;22.03;92.19
43846;BME280;32485;51.112;13.640;2022-08-19T09:45:28;99677.25;;;22.05;91.45
43846;BME280;32485;51.112;13.640;2022-08-19T09:47:56;99677.97;;;22.09;90.12
43846;BME280;32485;51.112;13.640;2022-08-19T09:50:25;99674.16;;;21.99;89.84
43846;BME280;32485;51.112;13.640;2022-08-19T09:52:52;99680.00;;;22.05;89.86
43846;BME280;32485;51.112;13.640;2022-08-19T09:55:23;99674.97;;;22.00;89.77
43846;BME280;32485;51.112;13.640;2022-08-19T09:57:50;99687.81;;;22.10;89.30
43846;BME280;32485;51.112;13.640;2022-08-19T10:00:20;99688.09;;;22.19;89.56
43846;BME280;32485;51.112;13.640;2022-08-19T10:02:47;99682.09;;;22.28;88.17
43846;BME280;32485;51.112;13.640;2022-08-19T10:05:14;99693.84;;;22.32;87.47
43846;BME280;32485;51.112;13.640;2022-08-19T10:08:01;99687.19;;;22.30;86.89
43846;BME280;32485;51.112;13.640;2022-08-19T10:10:28;99701.31;;;22.32;87.27
43846;BME280;32485;51.112;13.640;2022-08-19T10:12:55;99695.03;;;22.35;87.29
43846;BME280;32485;51.112;13.640;2022-08-19T10:15:22;99699.28;;;22.39;87.23
43846;BME280;32485;51.112;13.640;2022-08-19T10:17:49;99692.22;;;22.38;87.03
43846;BME280;32485;51.112;13.640;2022-08-19T10:20:16;99692.94;;;22.42;86.99
43846;BME280;32485;51.112;13.640;2022-08-19T10:22:44;99691.22;;;22.56;86.77
43846;BME280;32485;51.112;13.640;2022-08-19T10:25:12;99687.53;;;22.66;86.29
43846;BME280;32485;51.112;13.640;2022-08-19T10:27:40;99697.56;;;22.80;84.96
43846;BME280;32485;51.112;13.640;2022-08-19T10:30:08;99712.84;;;22.85;84.05
43846;BME280;32485;51.112;13.640;2022-08-19T10:32:36;99702.06;;;22.98;83.36
